createdAt,value
2022-09-17T00:01:20.151Z,1.10
2022-09-17T00:03:52.563Z,1.13
2022-09-17T00:06:19.899Z,0.93
2022-09-17T00:08:47.359Z,1.08
2022-09-17T00:11:21.111Z,1.00
2022-09-17T00:13:48.522Z,1.20
2022-09-17T00:16:21.567Z,0.93
2022-09-17T00:18:48.652Z,1.00
2022-09-17T00:21:19.017Z,1.00
2022-09-17T00:23:46.084Z,1.20
2022-09-17T00:26:13.760Z,1.07
2022-09-17T00:28:41.855Z,1.20
2022-09-17T00:31:09.961Z,1.10
2022-09-17T00:33:37.117Z,1.10
2022-09-17T00:36:04.638Z,1.05
2022-09-17T00:38:32.063Z,1.20
2022-09-17T00:40:59.092Z,0.85
2022-09-17T00:43:37.750Z,0.93
2022-09-17T00:46:07.041Z,0.90
2022-09-17T00:48:34.071Z,1.00
2022-09-17T00:51:01.712Z,1.30
2022-09-17T00:53:28.911Z,0.90
2022-09-17T00:55:59.080Z,1.15
2022-09-17T00:58:26.481Z,0.95
2022-09-17T01:00:53.598Z,0.98
2022-09-17T01:03:20.894Z,1.20
2022-09-17T01:06:05.755Z,1.00
2022-09-17T01:08:38.362Z,0.98
2022-09-17T01:11:24.420Z,1.20
2022-09-17T01:13:59.926Z,1.10
2022-09-17T01:16:53.836Z,0.90
2022-09-17T01:19:40.450Z,0.98
2022-09-17T01:22:13.947Z,1.13
2022-09-17T01:24:44.144Z,0.88
2022-09-17T01:27:16.964Z,0.75
2022-09-17T01:29:49.934Z,0.90
2022-09-17T01:32:25.201Z,0.82
2022-09-17T01:35:04.187Z,1.00
2022-09-17T01:37:33.607Z,1.00
2022-09-17T01:40:15.971Z,1.38
2022-09-17T01:42:52.473Z,1.10
2022-09-17T01:45:24.305Z,0.95
2022-09-17T01:47:52.956Z,0.80
2022-09-17T01:50:28.955Z,1.00
2022-09-17T01:52:56.769Z,0.88
2022-09-17T01:55:27.050Z,0.93
2022-09-17T01:57:56.315Z,0.85
2022-09-17T02:00:23.699Z,1.10
2022-09-17T02:02:53.761Z,0.80
2022-09-17T02:05:39.871Z,0.80
2022-09-17T02:08:10.423Z,0.90
2022-09-17T02:10:39.327Z,0.80
2022-09-17T02:13:09.012Z,0.80
2022-09-17T02:15:42.149Z,0.93
2022-09-17T02:18:24.569Z,0.90
2022-09-17T02:20:54.487Z,0.90
2022-09-17T02:23:24.804Z,0.98
2022-09-17T02:26:02.177Z,0.98
2022-09-17T02:28:38.471Z,0.90
2022-09-17T02:31:05.522Z,0.85
2022-09-17T02:33:33.296Z,1.00
2022-09-17T02:36:00.889Z,0.80
2022-09-17T02:38:30.197Z,1.00
2022-09-17T02:41:11.463Z,1.00
2022-09-17T02:43:45.938Z,0.90
2022-09-17T02:46:39.317Z,0.90
2022-09-17T02:49:25.459Z,0.95
2022-09-17T02:51:52.533Z,0.90
2022-09-17T02:54:25.771Z,1.15
2022-09-17T02:56:55.944Z,0.95
2022-09-17T02:59:26.049Z,1.03
2022-09-17T03:02:07.454Z,0.93
2022-09-17T03:04:35.333Z,0.98
2022-09-17T03:07:06.019Z,0.90
2022-09-17T03:09:34.092Z,1.15
2022-09-17T03:12:02.147Z,1.17
2022-09-17T03:14:29.190Z,0.80
2022-09-17T03:16:56.517Z,1.00
2022-09-17T03:19:23.581Z,1.10
2022-09-17T03:21:50.702Z,1.00
2022-09-17T03:24:17.643Z,1.20
2022-09-17T03:26:44.755Z,0.80
2022-09-17T03:29:11.710Z,0.90
2022-09-17T03:31:38.669Z,0.80
2022-09-17T03:34:05.696Z,0.93
2022-09-17T03:36:32.819Z,0.90
2022-09-17T03:38:59.792Z,0.90
2022-09-17T03:41:27.234Z,1.00
2022-09-17T03:43:54.197Z,0.98
2022-09-17T03:46:21.396Z,0.93
2022-09-17T03:48:48.498Z,1.40
2022-09-17T03:51:15.457Z,1.05
2022-09-17T03:53:42.419Z,1.10
2022-09-17T03:56:09.469Z,1.10
2022-09-17T03:58:36.578Z,1.00
2022-09-17T04:01:04.633Z,0.90
2022-09-17T04:03:32.316Z,1.00
2022-09-17T04:05:59.732Z,1.10
2022-09-17T04:08:27.177Z,1.15
2022-09-17T04:10:54.231Z,1.00
2022-09-17T04:13:21.528Z,1.10
2022-09-17T04:15:48.588Z,1.10
2022-09-17T04:18:15.995Z,0.90
2022-09-17T04:20:43.211Z,0.90
2022-09-17T04:23:11.996Z,1.00
2022-09-17T04:25:39.235Z,0.90
2022-09-17T04:28:06.281Z,0.98
2022-09-17T04:30:33.281Z,0.85
2022-09-17T04:33:00.275Z,1.10
2022-09-17T04:35:27.275Z,1.10
2022-09-17T04:37:55.120Z,1.00
2022-09-17T04:40:22.766Z,0.90
2022-09-17T04:42:52.423Z,1.15
2022-09-17T04:45:19.573Z,1.02
2022-09-17T04:47:46.620Z,0.98
2022-09-17T04:50:13.614Z,1.20
2022-09-17T04:52:44.277Z,1.10
2022-09-17T04:55:11.789Z,0.98
2022-09-17T04:57:38.777Z,0.93
2022-09-17T05:00:10.556Z,1.00
2022-09-17T05:02:37.513Z,1.00
2022-09-17T05:05:04.603Z,1.00
2022-09-17T05:07:31.575Z,1.10
2022-09-17T05:09:58.527Z,1.00
2022-09-17T05:12:25.458Z,1.00
2022-09-17T05:14:52.565Z,1.20
2022-09-17T05:17:19.510Z,1.27
2022-09-17T05:19:46.455Z,1.27
2022-09-17T05:22:13.477Z,1.05
2022-09-17T05:24:40.494Z,1.27
2022-09-17T05:27:08.833Z,1.30
2022-09-17T05:29:36.662Z,1.20
2022-09-17T05:32:04.270Z,1.00
2022-09-17T05:34:31.226Z,1.05
2022-09-17T05:36:58.252Z,1.20
2022-09-17T05:39:29.057Z,1.03
2022-09-17T05:41:56.013Z,1.50
2022-09-17T05:44:23.699Z,1.48
2022-09-17T05:46:52.826Z,1.30
2022-09-17T05:49:19.837Z,1.05
2022-09-17T05:51:46.847Z,1.13
2022-09-17T05:54:13.749Z,0.90
2022-09-17T05:56:40.659Z,1.30
2022-09-17T05:59:07.578Z,1.08
2022-09-17T06:01:34.567Z,1.20
2022-09-17T06:04:04.510Z,1.60
2022-09-17T06:06:31.491Z,1.17
2022-09-17T06:09:01.572Z,1.33
2022-09-17T06:11:28.600Z,1.30
2022-09-17T06:13:55.626Z,1.45
2022-09-17T06:16:23.409Z,1.20
2022-09-17T06:18:52.748Z,1.52
2022-09-17T06:21:21.754Z,1.30
2022-09-17T06:23:49.580Z,1.08
2022-09-17T06:26:17.041Z,1.65
2022-09-17T06:28:44.491Z,1.47
2022-09-17T06:31:12.414Z,1.40
2022-09-17T06:33:39.537Z,1.10
2022-09-17T06:36:12.434Z,0.95
2022-09-17T06:38:40.585Z,1.27
2022-09-17T06:41:07.544Z,1.00
2022-09-17T06:43:34.652Z,1.48
2022-09-17T06:46:02.585Z,0.80
2022-09-17T06:48:30.062Z,1.10
2022-09-17T06:51:01.775Z,1.45
2022-09-17T06:53:29.689Z,1.20
2022-09-17T06:55:58.366Z,1.25
2022-09-17T06:58:29.203Z,1.20
2022-09-17T07:01:00.617Z,1.08
2022-09-17T07:03:28.870Z,1.23
2022-09-17T07:05:56.256Z,1.57
2022-09-17T07:08:23.661Z,1.40
2022-09-17T07:10:50.770Z,1.40
2022-09-17T07:13:17.882Z,1.50
2022-09-17T07:15:51.815Z,1.40
2022-09-17T07:18:18.940Z,1.10
2022-09-17T07:20:52.136Z,1.33
2022-09-17T07:23:19.249Z,1.10
2022-09-17T07:25:51.018Z,1.48
2022-09-17T07:28:18.031Z,1.60
2022-09-17T07:30:44.953Z,1.60
2022-09-17T07:33:12.205Z,1.65
2022-09-17T07:35:39.163Z,1.92
2022-09-17T07:38:06.191Z,2.67
2022-09-17T07:40:33.241Z,2.15
2022-09-17T07:43:00.292Z,2.57
2022-09-17T07:45:27.246Z,2.60
2022-09-17T07:47:54.310Z,2.30
2022-09-17T07:50:21.304Z,2.65
2022-09-17T07:52:48.510Z,2.65
2022-09-17T07:55:15.985Z,2.60
2022-09-17T07:57:43.041Z,2.13
2022-09-17T08:00:10.288Z,2.45
2022-09-17T08:02:40.253Z,2.28
2022-09-17T08:05:07.778Z,2.67
2022-09-17T08:07:34.763Z,2.87
2022-09-17T08:10:02.115Z,3.10
2022-09-17T08:12:29.132Z,2.47
2022-09-17T08:14:56.248Z,2.50
2022-09-17T08:17:23.178Z,1.95
2022-09-17T08:19:50.119Z,3.00
2022-09-17T08:22:17.166Z,1.95
2022-09-17T08:24:44.736Z,2.08
2022-09-17T08:27:11.651Z,2.03
2022-09-17T08:29:38.643Z,2.05
2022-09-17T08:32:05.639Z,1.80
2022-09-17T08:34:32.642Z,1.95
2022-09-17T08:36:59.766Z,2.03
2022-09-17T08:39:26.772Z,2.05
2022-09-17T08:42:09.369Z,1.90
2022-09-17T08:44:36.522Z,2.13
2022-09-17T08:47:09.964Z,1.98
2022-09-17T08:49:41.598Z,1.70
2022-09-17T08:52:17.685Z,2.05
2022-09-17T08:54:44.658Z,2.10
2022-09-17T08:57:18.505Z,1.90
2022-09-17T09:00:05.913Z,1.58
2022-09-17T09:02:41.035Z,1.95
2022-09-17T09:05:16.937Z,1.67
2022-09-17T09:07:49.338Z,1.42
2022-09-17T09:10:27.387Z,1.70
2022-09-17T09:12:54.857Z,1.35
2022-09-17T09:15:32.001Z,1.58
2022-09-17T09:18:03.341Z,1.20
2022-09-17T09:20:42.929Z,1.33
2022-09-17T09:23:31.510Z,1.30
2022-09-17T09:26:18.607Z,1.20
2022-09-17T09:28:57.863Z,1.30
2022-09-17T09:31:43.399Z,1.42
2022-09-17T09:34:12.127Z,1.17
2022-09-17T09:36:39.199Z,1.43
2022-09-17T09:39:15.881Z,1.20
2022-09-17T09:41:45.666Z,0.98
2022-09-17T09:44:13.945Z,1.30
2022-09-17T09:46:47.199Z,1.23
2022-09-17T09:49:34.460Z,1.07
2022-09-17T09:52:20.182Z,1.25
2022-09-17T09:54:56.568Z,1.25
2022-09-17T09:57:41.702Z,1.20
2022-09-17T10:00:29.104Z,1.50
2022-09-17T10:03:15.213Z,1.50
2022-09-17T10:06:01.152Z,1.17
2022-09-17T10:08:30.064Z,1.17
2022-09-17T10:11:03.412Z,1.48
2022-09-17T10:13:32.002Z,1.10
2022-09-17T10:16:19.230Z,0.97
2022-09-17T10:18:47.332Z,1.00
2022-09-17T10:21:31.211Z,1.00
2022-09-17T10:23:59.003Z,1.10
2022-09-17T10:26:27.659Z,1.10
2022-09-17T10:29:02.623Z,1.20
2022-09-17T10:31:46.572Z,1.10
2022-09-17T10:34:24.500Z,1.00
2022-09-17T10:36:51.840Z,1.60
2022-09-17T10:39:25.492Z,1.08
2022-09-17T10:41:55.793Z,0.93
2022-09-17T10:44:26.105Z,1.10
2022-09-17T10:46:53.824Z,1.27
2022-09-17T10:49:23.817Z,1.10
2022-09-17T10:51:50.700Z,1.23
2022-09-17T10:54:26.975Z,0.97
2022-09-17T10:56:55.020Z,0.98
2022-09-17T10:59:39.641Z,0.88
2022-09-17T11:02:12.519Z,0.95
2022-09-17T11:04:49.009Z,1.00
2022-09-17T11:07:15.973Z,0.97
2022-09-17T11:09:55.981Z,0.70
2022-09-17T11:12:42.168Z,0.90
2022-09-17T11:15:38.757Z,0.70
2022-09-17T11:18:18.214Z,0.73
2022-09-17T11:20:51.293Z,0.80
2022-09-17T11:23:30.703Z,0.88
2022-09-17T11:26:08.342Z,0.90
2022-09-17T11:28:35.439Z,0.82
2022-09-17T11:31:05.535Z,0.70
2022-09-17T11:33:39.695Z,1.00
2022-09-17T11:36:18.160Z,0.90
2022-09-17T11:38:48.696Z,0.80
2022-09-17T11:41:16.024Z,0.90
2022-09-17T11:43:47.157Z,0.70
2022-09-17T11:46:23.062Z,0.90
2022-09-17T11:48:58.169Z,1.00
2022-09-17T11:51:30.833Z,0.88
2022-09-17T11:54:15.661Z,0.88
2022-09-17T11:56:48.060Z,0.90
2022-09-17T11:59:20.259Z,0.80
2022-09-17T12:01:58.720Z,0.80
2022-09-17T12:04:37.985Z,0.85
2022-09-17T12:07:13.222Z,0.88
2022-09-17T12:09:41.173Z,0.82
2022-09-17T12:12:48.494Z,0.80
2022-09-17T12:15:20.107Z,0.90
2022-09-17T12:17:50.683Z,1.00
2022-09-17T12:20:23.824Z,0.90
2022-09-17T12:22:51.777Z,0.90
2022-09-17T12:25:18.854Z,1.00
2022-09-17T12:27:52.727Z,1.08
2022-09-17T12:30:22.926Z,1.00
2022-09-17T12:33:08.796Z,1.10
2022-09-17T12:36:03.407Z,1.00
2022-09-17T12:38:50.232Z,1.00
2022-09-17T12:41:17.314Z,1.10
2022-09-17T12:44:04.637Z,1.05
2022-09-17T12:46:53.484Z,1.10
2022-09-17T12:49:20.638Z,0.82
2022-09-17T12:51:55.878Z,1.00
2022-09-17T12:54:45.268Z,0.90
2022-09-17T12:57:12.535Z,0.90
2022-09-17T12:59:46.775Z,1.10
2022-09-17T13:02:20.094Z,0.82
2022-09-17T13:05:21.153Z,0.93
2022-09-17T13:07:48.751Z,0.85
2022-09-17T13:10:34.717Z,0.90
2022-09-17T13:13:04.762Z,0.80
2022-09-17T13:15:39.071Z,0.95
2022-09-17T13:18:26.730Z,0.87
2022-09-17T13:21:03.703Z,0.70
2022-09-17T13:23:39.492Z,0.65
2022-09-17T13:26:07.275Z,0.63
2022-09-17T13:28:46.782Z,0.80
2022-09-17T13:31:20.480Z,0.90
2022-09-17T13:33:53.812Z,0.90
2022-09-17T13:36:34.582Z,1.00
2022-09-17T13:39:02.825Z,0.70
2022-09-17T13:41:31.900Z,0.88
2022-09-17T13:43:59.168Z,1.10
2022-09-17T13:46:28.202Z,1.10
2022-09-17T13:48:57.705Z,1.02
2022-09-17T13:51:30.919Z,0.80
2022-09-17T13:54:08.683Z,1.00
2022-09-17T13:56:37.566Z,1.00
2022-09-17T13:59:08.690Z,0.80
2022-09-17T14:01:48.944Z,0.70
2022-09-17T14:04:35.336Z,1.05
2022-09-17T14:07:23.668Z,1.10
2022-09-17T14:09:52.592Z,1.10
2022-09-17T14:12:39.197Z,0.85
2022-09-17T14:15:29.508Z,1.20
2022-09-17T14:17:58.410Z,0.68
2022-09-17T14:20:26.432Z,0.70
2022-09-17T14:22:54.900Z,0.77
2022-09-17T14:25:24.318Z,0.77
2022-09-17T14:27:51.343Z,0.80
2022-09-17T14:30:31.653Z,0.93
2022-09-17T14:33:01.557Z,0.88
2022-09-17T14:35:31.996Z,0.83
2022-09-17T14:38:02.542Z,0.80
2022-09-17T14:40:32.212Z,0.80
2022-09-17T14:42:59.327Z,0.90
2022-09-17T14:45:28.149Z,0.80
2022-09-17T14:48:13.913Z,0.77
2022-09-17T14:50:40.982Z,0.90
2022-09-17T14:53:08.425Z,0.85
2022-09-17T14:55:40.419Z,0.80
2022-09-17T14:58:24.909Z,0.98
2022-09-17T15:00:53.005Z,1.17
2022-09-17T15:03:21.504Z,1.00
2022-09-17T15:05:50.593Z,0.98
2022-09-17T15:08:19.260Z,0.90
2022-09-17T15:10:46.332Z,0.85
2022-09-17T15:13:14.730Z,0.90
2022-09-17T15:15:50.925Z,0.70
2022-09-17T15:18:17.953Z,1.17
2022-09-17T15:20:47.090Z,0.98
2022-09-17T15:23:25.648Z,1.80
2022-09-17T15:25:54.940Z,1.70
2022-09-17T15:28:28.241Z,1.75
2022-09-17T15:30:55.415Z,1.52
2022-09-17T15:33:24.333Z,1.20
2022-09-17T15:35:58.424Z,1.73
2022-09-17T15:38:27.526Z,1.83
2022-09-17T15:40:54.733Z,1.10
2022-09-17T15:43:27.859Z,1.40
2022-09-17T15:45:55.328Z,1.08
2022-09-17T15:48:28.537Z,1.30
2022-09-17T15:50:56.799Z,1.43
2022-09-17T15:53:25.095Z,1.35
2022-09-17T15:56:06.401Z,1.05
2022-09-17T15:58:38.356Z,1.00
2022-09-17T16:01:11.777Z,1.40
2022-09-17T16:03:39.445Z,1.10
2022-09-17T16:06:29.979Z,1.10
2022-09-17T16:08:58.184Z,1.40
2022-09-17T16:11:26.612Z,1.40
2022-09-17T16:13:55.241Z,1.10
2022-09-17T16:16:27.895Z,1.47
2022-09-17T16:18:55.126Z,1.38
2022-09-17T16:21:22.123Z,1.52
2022-09-17T16:23:49.118Z,1.17
2022-09-17T16:26:19.594Z,1.20
2022-09-17T16:28:47.824Z,1.13
2022-09-17T16:31:15.107Z,1.30
2022-09-17T16:33:42.132Z,1.42
2022-09-17T16:36:09.100Z,1.10
2022-09-17T16:38:36.329Z,1.30
2022-09-17T16:41:06.324Z,1.33
2022-09-17T16:43:34.577Z,0.98
2022-09-17T16:46:02.640Z,1.15
2022-09-17T16:48:30.405Z,1.40
2022-09-17T16:50:57.423Z,1.42
2022-09-17T16:53:24.590Z,1.20
2022-09-17T16:55:51.507Z,1.33
2022-09-17T16:58:18.445Z,1.23
2022-09-17T17:00:45.782Z,1.08
2022-09-17T17:03:13.723Z,0.88
2022-09-17T17:05:40.950Z,0.80
2022-09-17T17:08:08.807Z,1.13
2022-09-17T17:10:37.906Z,0.95
2022-09-17T17:13:05.000Z,1.10
2022-09-17T17:15:32.173Z,1.00
2022-09-17T17:17:59.180Z,1.00
2022-09-17T17:20:26.172Z,1.20
2022-09-17T17:22:53.082Z,1.20
2022-09-17T17:25:20.039Z,1.00
2022-09-17T17:27:46.959Z,1.13
2022-09-17T17:30:17.301Z,1.00
2022-09-17T17:32:45.899Z,1.23
2022-09-17T17:35:12.849Z,1.40
2022-09-17T17:37:40.191Z,1.73
2022-09-17T17:40:10.041Z,1.55
2022-09-17T17:42:43.858Z,1.77
2022-09-17T17:45:10.908Z,1.65
2022-09-17T17:47:37.848Z,1.98
2022-09-17T17:50:05.184Z,1.55
2022-09-17T17:52:32.161Z,1.50
2022-09-17T17:54:59.237Z,1.20
2022-09-17T17:57:26.244Z,1.45
2022-09-17T17:59:53.191Z,1.55
2022-09-17T18:02:20.593Z,1.50
2022-09-17T18:04:47.675Z,1.50
2022-09-17T18:07:14.607Z,1.70
2022-09-17T18:09:41.584Z,1.50
2022-09-17T18:12:08.519Z,1.88
2022-09-17T18:14:35.525Z,1.60
2022-09-17T18:17:02.798Z,1.70
2022-09-17T18:19:29.826Z,1.30
2022-09-17T18:21:56.988Z,1.60
2022-09-17T18:24:23.928Z,1.30
2022-09-17T18:26:51.021Z,1.55
2022-09-17T18:29:18.380Z,1.42
2022-09-17T18:31:46.095Z,1.30
2022-09-17T18:34:14.768Z,3.15
2022-09-17T18:36:43.462Z,1.60
2022-09-17T18:42:01.910Z,1.92
2022-09-17T18:44:28.909Z,1.43
2022-09-17T18:46:56.155Z,1.80
2022-09-17T18:49:23.219Z,1.40
2022-09-17T18:51:50.173Z,1.42
2022-09-17T18:54:17.212Z,1.42
2022-09-17T18:56:44.430Z,1.40
2022-09-17T18:59:11.615Z,1.45
2022-09-17T19:01:38.820Z,1.60
2022-09-17T19:04:07.649Z,3.35
2022-09-17T19:06:35.585Z,3.08
2022-09-17T19:09:03.870Z,2.67
2022-09-17T19:11:30.948Z,2.40
2022-09-17T19:13:57.954Z,2.63
2022-09-17T19:16:25.019Z,2.60
2022-09-17T19:18:52.242Z,2.42
2022-09-17T19:21:21.512Z,2.37
2022-09-17T19:23:52.146Z,2.30
2022-09-17T19:26:23.391Z,1.90
2022-09-17T19:29:03.030Z,2.28
2022-09-17T19:31:30.449Z,2.28
2022-09-17T19:33:58.747Z,2.10
2022-09-17T19:36:26.213Z,2.08
2022-09-17T19:38:53.287Z,2.05
2022-09-17T19:41:23.191Z,1.88
2022-09-17T19:43:52.152Z,2.25
2022-09-17T19:46:21.416Z,1.83
2022-09-17T19:48:49.523Z,1.92
2022-09-17T19:51:17.061Z,1.92
2022-09-17T19:53:44.683Z,1.95
2022-09-17T19:56:22.646Z,1.67
2022-09-17T19:58:50.388Z,1.77
2022-09-17T20:01:17.620Z,1.77
2022-09-17T20:03:45.295Z,1.95
2022-09-17T20:06:14.216Z,1.70
2022-09-17T20:08:48.331Z,2.03
2022-09-17T20:11:16.128Z,1.77
2022-09-17T20:13:43.364Z,1.73
2022-09-17T20:16:11.553Z,1.50
2022-09-17T20:18:39.364Z,2.33
2022-09-17T20:21:07.382Z,1.98
2022-09-17T20:23:34.641Z,1.80
2022-09-17T20:26:02.011Z,1.77
2022-09-17T20:28:29.198Z,1.63
2022-09-17T20:31:00.577Z,1.50
2022-09-17T20:33:27.704Z,1.65
2022-09-17T20:36:01.878Z,1.50
2022-09-17T20:41:17.073Z,1.50
2022-09-17T20:43:53.578Z,1.52
2022-09-17T20:46:27.586Z,1.83
2022-09-17T20:48:57.573Z,1.53
2022-09-17T20:51:25.911Z,2.20
2022-09-17T20:53:53.050Z,1.80
2022-09-17T20:56:21.229Z,1.85
2022-09-17T20:58:54.269Z,1.90
2022-09-17T21:01:23.287Z,2.27
2022-09-17T21:03:54.037Z,1.80
2022-09-17T21:06:22.520Z,1.85
2022-09-17T21:08:50.124Z,1.70
2022-09-17T21:11:17.842Z,1.95
2022-09-17T21:13:44.974Z,1.70
2022-09-17T21:16:12.268Z,2.15
2022-09-17T21:18:40.134Z,1.88
2022-09-17T21:21:08.212Z,2.10
2022-09-17T21:23:39.341Z,1.92
2022-09-17T21:26:07.515Z,1.80
2022-09-17T21:28:35.277Z,2.28
2022-09-17T21:31:04.123Z,1.85
2022-09-17T21:33:31.189Z,1.98
2022-09-17T21:36:08.674Z,1.88
2022-09-17T21:38:36.559Z,2.10
2022-09-17T21:41:05.408Z,1.85
2022-09-17T21:43:34.321Z,3.00
2022-09-17T21:46:05.994Z,2.90
2022-09-17T21:48:34.854Z,2.20
2022-09-17T21:51:06.343Z,2.80
2022-09-17T21:53:33.783Z,2.30
2022-09-17T21:56:02.135Z,2.10
2022-09-17T21:58:29.334Z,2.35
2022-09-17T22:00:56.373Z,2.22
2022-09-17T22:03:23.375Z,2.10
2022-09-17T22:05:50.554Z,2.30
2022-09-17T22:08:18.805Z,2.42
2022-09-17T22:10:45.965Z,2.30
2022-09-17T22:13:13.053Z,2.13
2022-09-17T22:15:40.463Z,2.60
2022-09-17T22:18:12.686Z,2.00
2022-09-17T22:20:39.976Z,2.25
2022-09-17T22:23:06.927Z,1.98
2022-09-17T22:25:34.099Z,2.60
2022-09-17T22:28:20.141Z,2.60
2022-09-17T22:30:47.910Z,2.35
2022-09-17T22:33:14.845Z,1.90
2022-09-17T22:35:41.753Z,2.22
2022-09-17T22:38:08.702Z,2.45
2022-09-17T22:40:36.181Z,2.03
2022-09-17T22:43:03.282Z,2.20
2022-09-17T22:45:30.174Z,2.42
2022-09-17T22:47:57.336Z,2.78
2022-09-17T22:50:24.415Z,2.45
2022-09-17T22:52:51.364Z,2.50
2022-09-17T22:55:18.278Z,2.55
2022-09-17T22:57:45.204Z,2.67
2022-09-17T23:00:12.904Z,2.58
2022-09-17T23:02:39.943Z,2.42
2022-09-17T23:05:07.318Z,2.33
2022-09-17T23:07:34.331Z,2.40
2022-09-17T23:10:01.330Z,2.47
2022-09-17T23:12:30.659Z,2.17
2022-09-17T23:14:57.551Z,2.30
2022-09-17T23:17:29.215Z,2.43
2022-09-17T23:19:56.867Z,2.70
2022-09-17T23:22:23.827Z,2.72
2022-09-17T23:24:50.749Z,2.50
2022-09-17T23:27:17.653Z,2.45
2022-09-17T23:29:44.538Z,2.17
2022-09-17T23:32:11.454Z,2.55
2022-09-17T23:34:40.812Z,2.72
2022-09-17T23:37:07.794Z,2.60
2022-09-17T23:39:34.726Z,2.60
2022-09-17T23:42:01.725Z,2.67
2022-09-17T23:44:28.789Z,2.33
2022-09-17T23:46:55.740Z,2.40
2022-09-17T23:49:22.764Z,2.13
2022-09-17T23:51:49.717Z,2.55
2022-09-17T23:54:16.864Z,2.40
2022-09-17T23:56:43.822Z,2.78
2022-09-17T23:59:11.269Z,2.47
